Broadway, United Kingdom
Current Conditions -  °F | °C
As of 6:50 AM on Sunday 21 Dec 2014 (Local Time) from EGVN Reporting Station
Light Rain Light Rain  
Wind Chill: 41°   Ceiling: 400
Heat Index: 45°   Visibility: 5mi
Dew Point: 43°   Wind: 7mph
Humidity: 93%   Direction: 230°SW
Pressure: 30.33"   Gusts: NA
Location:  52.03°N, 1.85°W
Report Text: EGVN 210650Z 23006KT 8000 -RADZ BKN004 BKN015 OVC032 07/06 Q1027 YLO2 TEMPO 5000 YL02
Loading
Personal Weather Stations






























Interactive Weather Map New forecast layout! Learn more

10-Day Weather Forecast

Advertisements
Track Severe Weather on mobile